Time;durP1;ratioP1;P1;durP2;ratioP2;P2;SDS_P1;SDS_P2;PMS_P1;PMS_P2;Temp;Humidity;BMP_temperature;BMP_pressure;BME280_temperature;BME280_humidity;BME280_pressure;Samples;Min_cycle;Max_cycle;Signal;HPM_P1;HPM_P2
2023/02/18 00:02:12;;;;;;;1.42;1.05;;;21.20;59.60;;;;;;4959306;28;88188;-85
2023/02/18 00:12:15;;;;;;;2.40;1.17;;;21.20;59.50;;;;;;4945730;28;90943;-86
2023/02/18 00:14:40;;;;;;;2.63;1.15;;;21.20;59.50;;;;;;4959931;28;87952;-85
2023/02/18 00:17:06;;;;;;;1.45;1.08;;;21.10;59.40;;;;;;4959275;28;88253;-85
2023/02/18 00:19:31;;;;;;;1.30;1.05;;;21.10;59.50;;;;;;4959007;28;87561;-85
2023/02/18 00:21:57;;;;;;;1.13;0.90;;;21.10;59.40;;;;;;4959191;28;87473;-85
2023/02/18 00:24:23;;;;;;;1.00;0.90;;;21.10;59.50;;;;;;4959277;28;87708;-85
2023/02/18 00:30:11;;;;;;;1.75;1.23;;;21.10;59.40;;;;;;4958420;28;86944;-85
2023/02/18 00:32:36;;;;;;;2.22;1.35;;;21.10;59.60;;;;;;4958777;28;86992;-85
2023/02/18 00:35:03;;;;;;;1.48;1.10;;;21.10;59.40;;;;;;4957734;28;89571;-85
2023/02/18 00:37:36;;;;;;;1.25;1.00;;;21.00;59.50;;;;;;4958612;28;89247;-85
2023/02/18 00:40:02;;;;;;;1.00;0.90;;;21.00;60.00;;;;;;4949531;28;86962;-85
2023/02/18 00:42:28;;;;;;;1.77;1.20;;;21.00;60.00;;;;;;4958905;28;87558;-85
2023/02/18 00:55:14;;;;;;;1.17;0.90;;;21.00;59.60;;;;;;4959112;28;86211;-85
2023/02/18 00:57:40;;;;;;;2.33;1.20;;;21.00;59.70;;;;;;4958192;28;88661;-85
2023/02/18 01:00:14;;;;;;;1.98;1.42;;;21.00;59.70;;;;;;4958563;28;87713;-85
2023/02/18 01:02:40;;;;;;;1.42;1.10;;;20.90;59.60;;;;;;4958007;28;88128;-85
2023/02/18 01:05:06;;;;;;;1.65;1.10;;;20.90;59.50;;;;;;4958554;28;87382;-85
2023/02/18 01:07:31;;;;;;;2.78;1.33;;;20.90;59.60;;;;;;4958393;28;88630;-85
2023/02/18 01:09:57;;;;;;;1.00;0.82;;;20.90;59.50;;;;;;4957734;28;88168;-85
2023/02/18 01:12:22;;;;;;;1.00;1.00;;;20.90;59.70;;;;;;4958163;28;87199;-85
2023/02/18 01:14:48;;;;;;;2.53;1.30;;;20.80;59.60;;;;;;4958687;28;87811;-84
2023/02/18 01:17:13;;;;;;;1.33;1.10;;;20.80;59.60;;;;;;4958083;28;86919;-85
2023/02/18 01:26:23;;;;;;;1.95;0.95;;;20.80;59.70;;;;;;4946648;28;90396;-85
2023/02/18 01:28:48;;;;;;;1.00;1.00;;;20.80;59.60;;;;;;4934686;28;91386;-85
2023/02/18 01:31:14;;;;;;;1.13;1.02;;;20.80;59.70;;;;;;4943875;28;89300;-85
2023/02/18 01:33:40;;;;;;;1.17;1.10;;;20.80;59.70;;;;;;4948761;28;87488;-85
2023/02/18 01:36:06;;;;;;;1.25;1.02;;;20.80;59.60;;;;;;4937475;28;87576;-85
2023/02/18 01:38:32;;;;;;;1.70;1.30;;;20.80;59.70;;;;;;4947117;28;88643;-85
2023/02/18 01:40:57;;;;;;;1.42;1.15;;;20.70;59.70;;;;;;4945976;28;87839;-85
2023/02/18 01:43:23;;;;;;;1.73;1.10;;;20.70;59.80;;;;;;4948845;28;87512;-85
2023/02/18 01:45:57;;;;;;;1.58;1.23;;;20.70;59.70;;;;;;4948858;28;87408;-85
2023/02/18 01:48:41;;;;;;;1.50;1.15;;;20.70;59.50;;;;;;4930058;28;91206;-84
2023/02/18 01:51:13;;;;;;;1.65;1.27;;;20.70;59.60;;;;;;4940099;28;88277;-85
2023/02/18 01:53:47;;;;;;;1.38;1.10;;;20.70;59.40;;;;;;4958127;28;88146;-85
2023/02/18 01:56:26;;;;;;;1.30;1.20;;;20.70;59.40;;;;;;4957931;28;87579;-85
2023/02/18 01:58:55;;;;;;;1.33;1.23;;;20.70;59.50;;;;;;4956658;28;91713;-85
2023/02/18 02:01:21;;;;;;;1.33;1.20;;;20.60;59.50;;;;;;4951179;28;88224;-85
2023/02/18 02:03:47;;;;;;;1.13;1.00;;;20.60;59.50;;;;;;4951389;28;87242;-85
2023/02/18 02:06:19;;;;;;;1.55;1.30;;;20.60;59.60;;;;;;4957977;28;87120;-85
2023/02/18 02:08:47;;;;;;;1.63;1.23;;;20.60;59.60;;;;;;4957885;28;87745;-85
2023/02/18 02:11:34;;;;;;;1.27;1.10;;;20.60;59.60;;;;;;4957765;28;88227;-85
2023/02/18 02:14:08;;;;;;;1.10;1.00;;;20.60;59.60;;;;;;4957045;28;87142;-85
2023/02/18 02:20:29;;;;;;;2.05;1.52;;;20.60;59.50;;;;;;4949113;28;88341;-85
2023/02/18 02:23:00;;;;;;;1.30;1.20;;;20.60;59.60;;;;;;4946708;28;89216;-85
2023/02/18 02:26:14;;;;;;;1.77;1.40;;;20.60;59.60;;;;;;4948312;28;87838;-85
2023/02/18 02:28:45;;;;;;;1.17;1.00;;;20.60;59.60;;;;;;4945879;28;87363;-85
2023/02/18 02:31:34;;;;;;;1.65;1.30;;;20.50;59.70;;;;;;4956705;28;88379;-85
2023/02/18 02:34:14;;;;;;;1.52;1.30;;;20.60;59.70;;;;;;4877402;28;87532;-85
2023/02/18 02:36:54;;;;;;;1.48;1.38;;;20.50;59.50;;;;;;4877982;28;87085;-85
2023/02/18 02:39:26;;;;;;;1.80;1.08;;;20.50;59.70;;;;;;4861490;28;89554;-85
2023/02/18 02:41:57;;;;;;;1.23;1.13;;;20.50;59.80;;;;;;4877636;28;89262;-85
2023/02/18 02:51:12;;;;;;;1.85;1.48;;;20.50;59.80;;;;;;4876647;28;91021;-85
2023/02/18 02:53:41;;;;;;;1.50;1.10;;;20.50;59.80;;;;;;4878139;28;88071;-84
2023/02/18 02:56:13;;;;;;;1.00;0.93;;;20.50;59.80;;;;;;4876630;28;89133;-85
2023/02/18 02:58:39;;;;;;;1.73;1.40;;;20.50;59.70;;;;;;4877473;28;87200;-85
2023/02/18 03:01:27;;;;;;;1.40;1.30;;;20.50;59.80;;;;;;4876779;28;87268;-85
2023/02/18 03:04:30;;;;;;;1.90;1.30;;;20.40;59.60;;;;;;4876174;28;90923;-85
2023/02/18 03:07:20;;;;;;;1.80;1.40;;;20.40;59.80;;;;;;4877427;28;88390;-85
2023/02/18 03:41:16;;;;;;;1.33;1.13;;;20.30;60.00;;;;;;4954421;28;88234;-85
2023/02/18 03:43:55;;;;;;;1.30;1.10;;;20.20;60.00;;;;;;4957570;28;87461;-84
2023/02/18 03:46:20;;;;;;;1.90;1.27;;;20.20;59.80;;;;;;4956530;28;87662;-85
2023/02/18 03:48:46;;;;;;;1.17;1.08;;;20.20;59.80;;;;;;4956381;28;88811;-85
2023/02/18 03:51:12;;;;;;;1.13;0.90;;;20.20;59.80;;;;;;4955876;28;88306;-85
2023/02/18 03:53:45;;;;;;;1.40;1.30;;;20.20;59.60;;;;;;4938031;28;90431;-85
2023/02/18 03:56:11;;;;;;;1.30;1.20;;;20.20;59.90;;;;;;4938028;28;91634;-85
2023/02/18 03:58:36;;;;;;;1.63;1.30;;;20.20;59.80;;;;;;4953385;28;88316;-85
2023/02/18 04:01:03;;;;;;;1.13;1.02;;;20.20;59.90;;;;;;4959678;28;87469;-85
2023/02/18 04:06:50;;;;;;;1.38;1.23;;;20.20;60.00;;;;;;4958618;28;87539;-85
2023/02/18 04:09:16;;;;;;;1.52;1.40;;;20.20;59.70;;;;;;4959662;28;87844;-85
2023/02/18 04:11:41;;;;;;;1.10;1.00;;;20.20;59.80;;;;;;4960607;28;86869;-85
2023/02/18 04:14:08;;;;;;;1.75;1.20;;;20.20;59.70;;;;;;4959014;28;87291;-85
2023/02/18 04:19:56;;;;;;;1.30;1.20;;;20.20;59.60;;;;;;4958044;28;88444;-85
2023/02/18 04:22:22;;;;;;;1.27;1.17;;;20.20;59.60;;;;;;4948233;28;87408;-85
2023/02/18 04:24:47;;;;;;;1.20;1.10;;;20.20;59.60;;;;;;4958287;28;87693;-85
2023/02/18 04:27:13;;;;;;;1.13;1.02;;;20.10;59.60;;;;;;4940888;28;90220;-87
2023/02/18 04:33:05;;;;;;;1.75;1.42;;;20.20;59.60;;;;;;4959359;28;87154;-87
2023/02/18 04:35:31;;;;;;;1.38;1.27;;;20.10;59.50;;;;;;4960126;28;87256;-87
2023/02/18 04:37:57;;;;;;;1.13;1.02;;;20.10;59.50;;;;;;4957765;28;88575;-87
2023/02/18 04:40:24;;;;;;;1.45;1.23;;;20.20;59.50;;;;;;4946488;28;88141;-87
2023/02/18 04:42:50;;;;;;;1.17;1.08;;;20.10;59.50;;;;;;4958167;28;88261;-88
2023/02/18 04:48:37;;;;;;;1.40;1.30;;;20.10;59.50;;;;;;4959028;28;87278;-87
2023/02/18 04:51:03;;;;;;;1.33;1.10;;;20.10;59.40;;;;;;4940368;28;89332;-87
2023/02/18 04:53:29;;;;;;;1.83;1.38;;;20.10;59.40;;;;;;4959627;28;87214;-87
2023/02/18 04:55:54;;;;;;;1.30;0.93;;;20.10;59.40;;;;;;4958276;28;87324;-87
2023/02/18 04:58:20;;;;;;;0.90;0.90;;;20.10;59.40;;;;;;4958633;28;89568;-87
2023/02/18 05:00:46;;;;;;;1.23;1.10;;;20.10;59.40;;;;;;4958692;28;88188;-87
2023/02/18 05:03:13;;;;;;;1.27;1.17;;;20.10;59.50;;;;;;4956014;28;87352;-87
2023/02/18 05:09:00;;;;;;;1.25;1.15;;;20.10;59.30;;;;;;4956869;28;92661;-87
2023/02/18 05:11:25;;;;;;;1.27;1.17;;;20.10;59.40;;;;;;4959231;28;88191;-87
2023/02/18 05:13:51;;;;;;;1.08;1.00;;;20.00;59.40;;;;;;4957872;28;87281;-87
2023/02/18 05:16:16;;;;;;;1.40;1.30;;;20.00;59.50;;;;;;4936907;28;89691;-87
2023/02/18 05:18:42;;;;;;;1.13;1.02;;;20.00;59.60;;;;;;4945275;28;88364;-87
2023/02/18 05:21:08;;;;;;;1.40;1.00;;;20.00;59.50;;;;;;4958352;28;87704;-87
2023/02/18 05:30:32;;;;;;;1.35;1.25;;;20.00;59.40;;;;;;4957695;28;87335;-88
2023/02/18 05:32:57;;;;;;;1.25;1.15;;;20.00;59.40;;;;;;4957950;28;87574;-87
2023/02/18 05:35:23;;;;;;;1.10;1.00;;;20.00;59.40;;;;;;4958848;28;88285;-87
2023/02/18 05:37:49;;;;;;;1.60;1.08;;;20.00;59.40;;;;;;4958487;28;87477;-87
2023/02/18 05:40:14;;;;;;;1.15;1.08;;;20.00;59.40;;;;;;4936159;28;91992;-87
2023/02/18 05:42:40;;;;;;;1.20;1.10;;;20.00;59.50;;;;;;4931391;28;88291;-87
2023/02/18 05:45:06;;;;;;;1.27;1.17;;;20.00;59.40;;;;;;4929429;28;87399;-87
2023/02/18 05:47:31;;;;;;;1.17;1.08;;;20.00;59.50;;;;;;4948896;28;87491;-87
2023/02/18 05:49:57;;;;;;;1.30;1.20;;;20.00;59.40;;;;;;4947368;28;88514;-87
2023/02/18 05:52:23;;;;;;;1.10;1.00;;;20.00;59.50;;;;;;4954792;28;88011;-87
2023/02/18 05:54:58;;;;;;;1.33;1.23;;;19.90;59.30;;;;;;4955150;28;87566;-87
2023/02/18 06:10:52;;;;;;;1.38;1.00;;;19.90;59.40;;;;;;4955458;28;87374;-87
2023/02/18 06:13:17;;;;;;;1.30;1.20;;;19.90;59.40;;;;;;4957343;28;89844;-87
2023/02/18 06:15:43;;;;;;;1.42;1.02;;;19.90;59.40;;;;;;4953827;28;88155;-87
2023/02/18 06:18:09;;;;;;;1.25;0.90;;;19.90;59.60;;;;;;4949116;28;87195;-87
2023/02/18 06:30:45;;;;;;;1.10;0.90;;;19.90;59.90;;;;;;4957309;28;87894;-87
2023/02/18 06:33:11;;;;;;;0.80;0.80;;;19.90;59.10;;;;;;4957329;28;87528;-87
2023/02/18 06:35:36;;;;;;;1.15;1.05;;;19.90;59.20;;;;;;4957432;28;88511;-87
2023/02/18 06:38:02;;;;;;;1.00;0.90;;;19.90;59.30;;;;;;4957165;28;88302;-88
2023/02/18 06:40:28;;;;;;;1.30;1.13;;;19.80;59.30;;;;;;4938972;28;87415;-87
2023/02/18 06:42:54;;;;;;;1.20;1.10;;;19.90;59.10;;;;;;4957432;28;87066;-87
2023/02/18 06:45:20;;;;;;;1.27;1.05;;;19.90;59.30;;;;;;4957477;28;88497;-88
2023/02/18 06:47:46;;;;;;;1.10;1.00;;;19.90;59.30;;;;;;4958081;28;88266;-88
2023/02/18 06:50:11;;;;;;;1.20;1.10;;;19.80;59.20;;;;;;4955239;28;87652;-88
2023/02/18 06:52:37;;;;;;;1.15;1.02;;;19.80;59.20;;;;;;4956720;28;87272;-87
2023/02/18 06:55:08;;;;;;;1.00;0.90;;;19.80;59.30;;;;;;4956297;28;89365;-88
2023/02/18 06:57:34;;;;;;;3.25;1.00;;;19.80;59.30;;;;;;4955234;28;90709;-88
2023/02/18 07:00:00;;;;;;;1.10;0.95;;;19.80;58.10;;;;;;4956223;28;87164;-88
2023/02/18 07:02:26;;;;;;;1.33;0.90;;;19.90;58.50;;;;;;4950443;28;89412;-87
2023/02/18 07:04:52;;;;;;;1.33;1.00;;;20.00;58.60;;;;;;4959713;28;88465;-87
2023/02/18 07:11:01;;;;;;;1.80;1.15;;;20.00;58.50;;;;;;4960284;28;87148;-88
2023/02/18 07:13:26;;;;;;;3.60;1.20;;;20.10;58.10;;;;;;4960946;28;87217;-87
2023/02/18 07:15:52;;;;;;;3.15;1.50;;;20.10;58.10;;;;;;4959889;28;88429;-88
2023/02/18 07:18:18;;;;;;;3.80;1.20;;;20.20;57.90;;;;;;4960169;28;87543;-87
2023/02/18 07:20:43;;;;;;;8.40;2.22;;;20.30;58.00;;;;;;4960809;28;88377;-88
2023/02/18 07:23:10;;;;;;;9.50;2.60;;;20.40;58.20;;;;;;4960141;28;87871;-87
2023/02/18 07:25:35;;;;;;;7.93;2.40;;;20.50;58.00;;;;;;4941550;28;87878;-87
2023/02/18 07:28:01;;;;;;;7.78;2.30;;;20.50;58.40;;;;;;4958571;28;88448;-87
2023/02/18 07:30:27;;;;;;;7.15;2.30;;;20.50;58.70;;;;;;4943034;28;87397;-87
2023/02/18 08:19:54;;;;;;;11.00;2.10;;;20.20;59.30;;;;;;4952044;28;86771;-86
2023/02/18 08:22:20;;;;;;;7.00;2.22;;;20.20;59.60;;;;;;4959408;28;87828;-87
2023/02/18 08:24:46;;;;;;;45.55;9.65;;;20.20;59.60;;;;;;4959420;28;87729;-86
2023/02/18 08:27:13;;;;;;;24.00;5.30;;;20.20;58.90;;;;;;4958419;28;88341;-86
2023/02/18 08:29:39;;;;;;;19.90;4.70;;;20.20;59.10;;;;;;4959794;28;87507;-86
2023/02/18 08:32:04;;;;;;;34.83;7.13;;;20.30;59.40;;;;;;4959547;28;88968;-86
2023/02/18 08:34:30;;;;;;;26.70;6.30;;;20.40;60.00;;;;;;4930771;28;88276;-87
2023/02/18 08:36:55;;;;;;;26.58;5.78;;;20.50;59.90;;;;;;4949064;28;87135;-87
2023/02/18 08:39:21;;;;;;;27.17;7.47;;;20.60;60.30;;;;;;4947762;28;87389;-86
2023/02/18 08:41:47;;;;;;;29.38;7.13;;;20.70;60.70;;;;;;4951869;28;88575;-87
2023/02/18 08:44:12;;;;;;;24.30;8.07;;;20.70;61.00;;;;;;4959012;28;88163;-87
2023/02/18 08:53:52;;;;;;;24.08;6.60;;;20.80;62.30;;;;;;4957848;28;92457;-86
2023/02/18 08:56:18;;;;;;;21.30;7.15;;;20.80;60.70;;;;;;4958885;28;93566;-86
2023/02/18 08:58:44;;;;;;;25.42;7.65;;;20.70;60.90;;;;;;4958831;28;87430;-86
2023/02/18 09:01:11;;;;;;;26.85;8.13;;;20.80;61.40;;;;;;4957709;28;87645;-86
2023/02/18 09:03:37;;;;;;;25.23;7.70;;;20.80;62.50;;;;;;4958413;28;88407;-86
2023/02/18 09:06:03;;;;;;;30.13;7.50;;;20.70;62.10;;;;;;4958211;28;88609;-87
2023/02/18 09:08:29;;;;;;;26.30;6.80;;;20.80;62.60;;;;;;4957635;28;87399;-87
2023/02/18 09:11:06;;;;;;;28.35;7.15;;;20.70;62.50;;;;;;4959510;28;87109;-87
2023/02/18 09:13:33;;;;;;;26.02;7.93;;;20.70;62.20;;;;;;4957769;28;88049;-86
2023/02/18 09:16:05;;;;;;;23.10;7.03;;;20.60;62.40;;;;;;4958386;28;88474;-87
2023/02/18 09:18:31;;;;;;;25.00;7.55;;;20.60;62.70;;;;;;4954060;28;88308;-87
2023/02/18 09:20:59;;;;;;;20.52;6.00;;;20.60;62.60;;;;;;4957856;28;87302;-87
2023/02/18 09:23:29;;;;;;;18.85;7.20;;;20.50;62.30;;;;;;4959122;28;89518;-87
2023/02/18 09:25:55;;;;;;;29.00;7.50;;;20.60;61.60;;;;;;4956065;28;90205;-86
2023/02/18 09:28:21;;;;;;;24.23;6.18;;;20.60;61.20;;;;;;4957785;28;86867;-87
2023/02/18 09:30:47;;;;;;;20.15;6.43;;;20.60;61.80;;;;;;4949695;28;87408;-86
2023/02/18 09:33:13;;;;;;;21.35;6.10;;;20.60;61.90;;;;;;4957194;28;95116;-87
2023/02/18 09:35:43;;;;;;;21.83;5.72;;;20.60;62.10;;;;;;4958781;28;86838;-89
2023/02/18 09:48:15;;;;;;;23.50;6.72;;;20.90;60.80;;;;;;4957402;28;87900;-87
2023/02/18 09:50:51;;;;;;;18.52;5.57;;;21.00;60.80;;;;;;4958723;28;87328;-88
2023/02/18 09:53:18;;;;;;;17.40;5.15;;;21.00;60.60;;;;;;4957375;28;87691;-88
2023/02/18 09:55:45;;;;;;;15.20;5.68;;;21.10;61.10;;;;;;4958309;28;88074;-88
2023/02/18 09:58:18;;;;;;;19.23;5.75;;;21.10;60.70;;;;;;4958335;28;87362;-90
2023/02/18 10:00:47;;;;;;;17.08;4.75;;;21.20;60.50;;;;;;4957987;28;87405;-88
2023/02/18 10:03:24;;;;;;;22.58;5.93;;;21.30;60.30;;;;;;4957946;28;87231;-89
2023/02/18 10:06:18;;;;;;;17.17;4.85;;;21.30;60.20;;;;;;4958769;28;88126;-90
2023/02/18 10:08:46;;;;;;;18.92;5.13;;;21.40;59.70;;;;;;4896693;28;94177;-89
2023/02/18 10:11:16;;;;;;;19.63;6.40;;;21.40;59.70;;;;;;4896999;28;88482;-88
2023/02/18 10:13:43;;;;;;;18.15;5.45;;;21.30;59.70;;;;;;4911138;28;87362;-88
2023/02/18 10:16:14;;;;;;;20.13;5.95;;;21.30;59.80;;;;;;4916319;28;87242;-90
2023/02/18 10:18:58;;;;;;;15.70;5.10;;;21.20;59.90;;;;;;4915627;28;91338;-89
2023/02/18 10:21:30;;;;;;;18.63;5.32;;;21.20;59.90;;;;;;4914000;28;87496;-90
2023/02/18 10:24:31;;;;;;;15.43;5.15;;;21.20;60.00;;;;;;4889920;28;90142;-89
2023/02/18 10:26:57;;;;;;;13.80;4.40;;;21.10;60.30;;;;;;4850501;29;88731;-89
2023/02/18 10:29:24;;;;;;;18.17;5.22;;;21.10;59.60;;;;;;4860362;29;89003;-90
2023/02/18 10:32:22;;;;;;;18.52;5.30;;;21.10;58.90;;;;;;4842950;29;86988;-89
2023/02/18 10:35:01;;;;;;;11.95;3.95;;;21.00;59.10;;;;;;4781193;29;88451;-88
2023/02/18 10:37:55;;;;;;;16.73;4.57;;;21.00;59.50;;;;;;4783366;29;89561;-90
2023/02/18 10:44:14;;;;;;;12.55;4.43;;;21.10;59.50;;;;;;4817024;29;87588;-89
2023/02/18 10:47:11;;;;;;;13.00;4.38;;;21.20;59.30;;;;;;4786981;29;91459;-88
2023/02/18 10:49:52;;;;;;;19.48;5.60;;;21.20;58.90;;;;;;4802097;29;91660;-88
2023/02/18 10:52:19;;;;;;;23.35;6.72;;;21.20;58.30;;;;;;4786727;29;90968;-91
2023/02/18 10:55:03;;;;;;;24.10;5.72;;;21.10;57.20;;;;;;4802682;29;87452;-87
2023/02/18 10:57:30;;;;;;;15.73;4.38;;;21.20;57.10;;;;;;4802677;29;88407;-90
2023/02/18 11:00:09;;;;;;;17.05;5.10;;;21.10;57.40;;;;;;4786537;29;90995;-87
2023/02/18 11:02:35;;;;;;;19.87;5.53;;;21.20;57.30;;;;;;4802987;29;90943;-88
2023/02/18 11:05:22;;;;;;;17.48;6.03;;;21.20;57.90;;;;;;4856653;29;88171;-89
2023/02/18 11:07:51;;;;;;;17.08;5.53;;;21.20;58.80;;;;;;4858588;29;87453;-88
2023/02/18 11:10:32;;;;;;;16.52;5.18;;;21.20;59.20;;;;;;4857898;29;88471;-88
2023/02/18 11:13:09;;;;;;;13.30;5.15;;;21.20;59.50;;;;;;4857990;29;87586;-88
2023/02/18 11:15:38;;;;;;;16.40;5.65;;;21.20;60.20;;;;;;4849600;29;87084;-87
2023/02/18 11:18:21;;;;;;;15.07;5.27;;;21.20;60.20;;;;;;4832147;29;87653;-88
2023/02/18 11:24:15;;;;;;;12.95;5.20;;;21.20;60.40;;;;;;4918081;28;91243;-88
2023/02/18 11:26:43;;;;;;;11.50;4.20;;;21.30;60.20;;;;;;4953622;28;87453;-88
2023/02/18 11:29:18;;;;;;;11.77;4.25;;;21.30;60.30;;;;;;4952458;28;87420;-87
2023/02/18 11:31:46;;;;;;;10.93;3.90;;;21.30;60.10;;;;;;4915840;28;92719;-89
2023/02/18 11:34:22;;;;;;;13.90;5.00;;;21.30;60.60;;;;;;4923174;28;89529;-88
2023/02/18 11:36:49;;;;;;;20.15;5.00;;;21.20;60.30;;;;;;4923620;28;87317;-87
2023/02/18 11:39:21;;;;;;;12.65;3.95;;;21.30;60.20;;;;;;4925374;28;87540;-88
2023/02/18 11:42:04;;;;;;;10.27;4.13;;;21.30;60.10;;;;;;4928244;28;88289;-87
2023/02/18 11:44:37;;;;;;;10.43;3.92;;;21.30;59.80;;;;;;4956019;28;92043;-87
2023/02/18 11:47:34;;;;;;;14.70;4.35;;;21.30;59.80;;;;;;4957499;28;87658;-88
2023/02/18 11:50:09;;;;;;;10.77;3.65;;;21.10;59.80;;;;;;4960024;28;86658;-87
2023/02/18 11:52:46;;;;;;;10.85;3.75;;;21.10;60.30;;;;;;4959742;28;88416;-88
2023/02/18 11:55:22;;;;;;;12.85;4.22;;;21.20;60.40;;;;;;4959103;28;88290;-87
2023/02/18 12:01:26;;;;;;;10.18;3.30;;;21.30;60.10;;;;;;4958753;28;87407;-87
2023/02/18 12:04:04;;;;;;;12.40;3.60;;;21.20;60.10;;;;;;4959101;28;88507;-89
2023/02/18 12:07:03;;;;;;;13.43;3.70;;;21.20;59.60;;;;;;4949172;28;91375;-89
2023/02/18 12:16:31;;;;;;;10.85;3.45;;;21.30;59.40;;;;;;4958424;28;87042;-89
2023/02/18 12:19:15;;;;;;;12.07;3.53;;;21.20;59.60;;;;;;4958718;28;87311;-88
2023/02/18 12:22:16;;;;;;;14.48;3.47;;;21.20;59.70;;;;;;4959469;28;87359;-89
2023/02/18 12:28:18;;;;;;;9.40;3.63;;;21.20;59.80;;;;;;4859616;28;88681;-89
2023/02/18 12:31:08;;;;;;;12.55;3.72;;;21.20;59.60;;;;;;4860643;28;88257;-89
2023/02/18 12:33:40;;;;;;;8.32;3.30;;;21.20;59.40;;;;;;4861058;28;87212;-88
2023/02/18 12:56:53;;;;;;;9.80;3.47;;;21.20;59.40;;;;;;4860360;29;87713;-87
2023/02/18 12:59:49;;;;;;;10.10;3.78;;;21.20;59.30;;;;;;4859020;29;88458;-88
2023/02/18 13:02:45;;;;;;;9.13;3.38;;;21.20;59.50;;;;;;4948400;28;87590;-87
2023/02/18 13:05:26;;;;;;;11.60;3.30;;;21.20;59.30;;;;;;4958272;28;88232;-86
2023/02/18 13:08:06;;;;;;;12.05;3.10;;;21.20;59.10;;;;;;4958485;28;87570;-87
2023/02/18 13:10:36;;;;;;;13.60;3.45;;;21.20;59.20;;;;;;4952511;28;87063;-87
2023/02/18 13:17:06;;;;;;;12.05;3.30;;;21.30;59.00;;;;;;4948325;28;87308;-87
2023/02/18 13:19:46;;;;;;;9.43;2.97;;;21.30;59.10;;;;;;4954650;28;88549;-86
2023/02/18 13:22:15;;;;;;;13.57;3.97;;;21.20;59.10;;;;;;4950986;28;87093;-88
2023/02/18 13:24:46;;;;;;;8.67;3.47;;;21.30;59.30;;;;;;4933019;28;91125;-92
2023/02/18 13:27:39;;;;;;;7.45;2.65;;;21.30;59.00;;;;;;4958428;28;89867;-94
2023/02/18 13:30:51;;;;;;;9.02;3.03;;;21.30;59.20;;;;;;4948797;28;89410;-94
2023/02/18 13:33:48;;;;;;;6.32;2.63;;;21.10;59.40;;;;;;4881674;28;87471;-94
2023/02/18 13:36:22;;;;;;;11.57;3.13;;;21.10;59.60;;;;;;4895980;28;87361;-94
2023/02/18 13:38:47;;;;;;;6.68;2.65;;;21.10;59.70;;;;;;4881800;28;91892;-93
2023/02/18 13:41:13;;;;;;;7.97;3.08;;;21.10;59.80;;;;;;4879528;28;91186;-94
2023/02/18 13:43:39;;;;;;;8.68;3.33;;;21.10;59.90;;;;;;4878948;28;87042;-95
2023/02/18 13:49:41;;;;;;;8.75;2.67;;;21.20;59.60;;;;;;4897194;28;87457;-93
2023/02/18 13:52:18;;;;;;;11.25;3.40;;;21.30;59.40;;;;;;4896262;28;88194;-94
2023/02/18 13:54:46;;;;;;;9.32;3.33;;;21.30;59.40;;;;;;4879063;28;88655;-93
2023/02/18 13:57:20;;;;;;;8.85;3.25;;;21.30;59.30;;;;;;4880535;28;89635;-94
2023/02/18 13:59:57;;;;;;;6.38;2.50;;;21.40;59.30;;;;;;4881006;28;91189;-94
2023/02/18 14:02:23;;;;;;;8.77;2.85;;;21.40;59.30;;;;;;4881392;28;95770;-94
2023/02/18 14:04:50;;;;;;;7.95;2.78;;;21.40;59.30;;;;;;4897925;28;87646;-94
2023/02/18 14:07:43;;;;;;;8.57;2.75;;;21.40;59.10;;;;;;4930413;28;87610;-92
2023/02/18 14:10:11;;;;;;;6.75;2.65;;;21.40;59.20;;;;;;4957459;28;89108;-92
2023/02/18 14:12:43;;;;;;;9.87;2.73;;;21.40;59.40;;;;;;4957639;28;87977;-92
2023/02/18 14:15:17;;;;;;;7.15;2.92;;;21.40;59.10;;;;;;4955058;28;87111;-93
2023/02/18 14:17:48;;;;;;;6.70;2.78;;;21.40;59.50;;;;;;4940085;28;90275;-92
2023/02/18 14:20:19;;;;;;;11.25;2.95;;;21.40;59.30;;;;;;4956566;28;89664;-91
2023/02/18 14:22:50;;;;;;;6.05;2.58;;;21.50;59.40;;;;;;4939008;28;92570;-87
2023/02/18 14:25:40;;;;;;;7.53;2.83;;;21.60;59.40;;;;;;4936779;28;87070;-88
2023/02/18 14:28:43;;;;;;;7.45;2.80;;;21.80;59.80;;;;;;4944551;28;87185;-88
2023/02/18 14:31:12;;;;;;;7.90;2.55;;;21.80;59.00;;;;;;4956290;28;88614;-89
2023/02/18 14:34:06;;;;;;;7.73;2.47;;;21.80;58.80;;;;;;4937684;28;94656;-87
2023/02/18 14:36:44;;;;;;;9.48;2.75;;;21.90;58.90;;;;;;4910326;28;86977;-88
2023/02/18 14:39:36;;;;;;;9.02;2.75;;;21.90;58.90;;;;;;4946640;28;86224;-88
2023/02/18 14:42:16;;;;;;;6.05;2.50;;;21.90;58.90;;;;;;4956678;28;89043;-88
2023/02/18 14:45:24;;;;;;;14.27;3.97;;;22.00;58.90;;;;;;4957554;28;88322;-87
2023/02/18 14:48:11;;;;;;;53.80;10.90;;;21.90;58.90;;;;;;4946903;28;88496;-87
2023/02/18 14:50:43;;;;;;;45.38;11.20;;;21.90;59.00;;;;;;4945991;28;87528;-88
2023/02/18 14:53:18;;;;;;;33.55;8.20;;;21.90;58.90;;;;;;4922979;28;92097;-88
2023/02/18 14:56:13;;;;;;;41.00;11.05;;;21.80;58.90;;;;;;4923526;28;91484;-88
2023/02/18 14:58:47;;;;;;;23.27;6.38;;;21.70;58.90;;;;;;4932088;28;87591;-89
2023/02/18 15:01:17;;;;;;;22.88;6.45;;;21.70;58.70;;;;;;4933464;28;90742;-89
2023/02/18 15:03:42;;;;;;;21.95;5.53;;;21.70;58.60;;;;;;4934391;28;88618;-88
2023/02/18 15:06:27;;;;;;;19.65;5.13;;;21.60;58.30;;;;;;4934212;28;88278;-87
2023/02/18 15:08:53;;;;;;;18.65;4.68;;;21.60;58.20;;;;;;4925718;28;87474;-88
2023/02/18 15:11:34;;;;;;;16.27;5.28;;;21.60;58.10;;;;;;4925325;28;92121;-89
2023/02/18 15:14:00;;;;;;;16.27;4.32;;;21.60;58.50;;;;;;4925003;28;89587;-87
2023/02/18 15:16:30;;;;;;;12.63;4.32;;;21.60;58.10;;;;;;4930517;28;91436;-89
2023/02/18 15:19:01;;;;;;;11.10;4.05;;;21.70;58.10;;;;;;4934186;28;87449;-88
2023/02/18 15:21:36;;;;;;;16.17;4.32;;;21.70;57.80;;;;;;4917958;28;91005;-87
2023/02/18 15:24:05;;;;;;;10.93;3.50;;;21.80;57.80;;;;;;4943393;28;90941;-90
2023/02/18 15:26:31;;;;;;;26.15;5.82;;;21.80;58.50;;;;;;4941990;28;88450;-93
2023/02/18 15:29:04;;;;;;;22.05;5.25;;;21.80;60.90;;;;;;4937998;28;87307;-93
2023/02/18 15:31:35;;;;;;;12.95;4.13;;;21.80;60.40;;;;;;4926442;28;90201;-93
2023/02/18 15:34:00;;;;;;;20.13;5.03;;;21.90;60.50;;;;;;4935654;28;88332;-92
2023/02/18 15:36:26;;;;;;;16.60;4.55;;;21.80;60.20;;;;;;4937124;28;87822;-93
2023/02/18 15:38:55;;;;;;;17.13;5.18;;;21.80;60.20;;;;;;4938704;28;87817;-93
2023/02/18 15:41:24;;;;;;;17.02;5.20;;;21.90;60.30;;;;;;4939301;28;94059;-93
2023/02/18 15:44:03;;;;;;;;;;;21.90;60.30;;;;;;4954099;28;91202;-92
2023/02/18 15:46:38;;;;;;;14.35;4.45;;;21.90;60.10;;;;;;4955623;28;90689;-92
2023/02/18 15:49:18;;;;;;;14.68;4.05;;;21.90;60.20;;;;;;4940371;28;86959;-94
2023/02/18 15:51:44;;;;;;;18.20;4.75;;;21.90;60.30;;;;;;4935442;28;90227;-94
2023/02/18 15:54:16;;;;;;;18.90;5.07;;;21.90;60.10;;;;;;4921654;28;88488;-93
2023/02/18 15:56:45;;;;;;;15.57;5.25;;;21.90;60.30;;;;;;4918456;28;90302;-94
2023/02/18 16:03:10;;;;;;;16.67;4.47;;;21.90;60.60;;;;;;4918313;28;90358;-91
2023/02/18 16:05:37;;;;;;;13.02;4.50;;;21.90;60.70;;;;;;4909186;28;96991;-94
2023/02/18 16:08:17;;;;;;;13.02;4.25;;;21.90;60.80;;;;;;4901755;28;91796;-94
2023/02/18 16:10:47;;;;;;;9.20;3.75;;;21.90;60.70;;;;;;4901857;28;87215;-93
2023/02/18 16:13:15;;;;;;;8.93;4.00;;;22.00;60.70;;;;;;4913994;28;89906;-94
2023/02/18 16:15:44;;;;;;;10.50;4.33;;;22.00;60.50;;;;;;4892808;28;91780;-92
2023/02/18 16:18:24;;;;;;;10.37;3.67;;;22.00;60.70;;;;;;4901305;28;91012;-91
2023/02/18 16:20:57;;;;;;;14.48;5.00;;;22.00;60.60;;;;;;4918545;28;87115;-91
2023/02/18 16:23:33;;;;;;;15.75;5.20;;;22.00;59.60;;;;;;4917966;28;91413;-93
2023/02/18 16:26:19;;;;;;;16.20;5.53;;;22.00;58.30;;;;;;4917104;28;88683;-90
2023/02/18 16:28:45;;;;;;;11.38;4.90;;;22.20;58.40;;;;;;4900513;28;92007;-92
2023/02/18 16:31:11;;;;;;;12.30;4.32;;;22.20;59.30;;;;;;4908933;28;88393;-91
2023/02/18 16:33:37;;;;;;;12.50;4.47;;;22.30;59.50;;;;;;4890548;28;90554;-91
2023/02/18 16:36:03;;;;;;;14.77;4.43;;;22.30;59.50;;;;;;4907640;28;87678;-91
2023/02/18 16:41:50;;;;;;;14.85;4.47;;;22.50;59.40;;;;;;4889840;28;87310;-91
2023/02/18 16:44:16;;;;;;;14.55;4.55;;;22.50;59.20;;;;;;4889931;28;88086;-92
2023/02/18 16:46:41;;;;;;;13.30;4.82;;;22.50;59.20;;;;;;4888552;28;88032;-95
2023/02/18 16:49:13;;;;;;;14.25;4.60;;;22.50;59.50;;;;;;4889491;28;87909;-91
2023/02/18 16:51:39;;;;;;;18.45;4.57;;;22.60;59.10;;;;;;4888672;28;87260;-92
2023/02/18 16:57:33;;;;;;;11.98;4.47;;;22.50;59.30;;;;;;4888128;28;88663;-94
2023/02/18 16:59:59;;;;;;;14.90;4.38;;;22.60;59.30;;;;;;4901810;28;91494;-94
2023/02/18 17:02:25;;;;;;;12.40;4.13;;;22.60;59.50;;;;;;4938493;28;87484;-93
2023/02/18 17:04:56;;;;;;;11.23;4.35;;;22.60;59.80;;;;;;4930334;28;87332;-92
2023/02/18 17:07:23;;;;;;;15.43;4.10;;;22.60;59.70;;;;;;4933187;28;90853;-91
2023/02/18 17:09:49;;;;;;;13.98;4.32;;;22.60;59.90;;;;;;4934361;28;91653;-92
2023/02/18 17:12:15;;;;;;;13.57;3.50;;;22.60;60.00;;;;;;4922523;28;86991;-92